sensor_id;sensor_type;location;lat;lon;timestamp;P1;durP1;ratioP1;P2;durP2;ratioP2
66095;SDS011;53861;53.422;14.530;2023-11-19T00:01:49;32.15;;;10.82;;
66095;SDS011;53861;53.422;14.530;2023-11-19T00:04:16;33.35;;;9.93;;
66095;SDS011;53861;53.422;14.530;2023-11-19T00:06:45;27.52;;;8.65;;
66095;SDS011;53861;53.422;14.530;2023-11-19T00:09:17;33.45;;;9.93;;
66095;SDS011;53861;53.422;14.530;2023-11-19T00:11:52;27.58;;;8.77;;
66095;SDS011;53861;53.422;14.530;2023-11-19T00:14:21;31.25;;;9.63;;
66095;SDS011;53861;53.422;14.530;2023-11-19T00:16:51;31.92;;;10.15;;
66095;SDS011;53861;53.422;14.530;2023-11-19T00:19:26;38.17;;;10.43;;
66095;SDS011;53861;53.422;14.530;2023-11-19T00:21:55;37.22;;;10.52;;
66095;SDS011;53861;53.422;14.530;2023-11-19T00:24:24;32.17;;;9.60;;
66095;SDS011;53861;53.422;14.530;2023-11-19T00:26:54;36.13;;;10.25;;
66095;SDS011;53861;53.422;14.530;2023-11-19T00:29:24;32.03;;;10.20;;
66095;SDS011;53861;53.422;14.530;2023-11-19T00:31:54;28.35;;;8.02;;
66095;SDS011;53861;53.422;14.530;2023-11-19T00:34:23;35.03;;;9.30;;
66095;SDS011;53861;53.422;14.530;2023-11-19T00:36:50;34.92;;;9.90;;
66095;SDS011;53861;53.422;14.530;2023-11-19T00:39:20;28.85;;;9.30;;
66095;SDS011;53861;53.422;14.530;2023-11-19T00:41:55;35.42;;;10.52;;
66095;SDS011;53861;53.422;14.530;2023-11-19T00:44:24;33.85;;;10.18;;
66095;SDS011;53861;53.422;14.530;2023-11-19T00:46:51;22.35;;;8.15;;
66095;SDS011;53861;53.422;14.530;2023-11-19T00:49:20;37.40;;;10.23;;
66095;SDS011;53861;53.422;14.530;2023-11-19T00:51:49;38.88;;;11.18;;
66095;SDS011;53861;53.422;14.530;2023-11-19T00:54:16;33.05;;;9.77;;
66095;SDS011;53861;53.422;14.530;2023-11-19T00:56:55;31.73;;;9.35;;
66095;SDS011;53861;53.422;14.530;2023-11-19T00:59:30;32.45;;;10.40;;
66095;SDS011;53861;53.422;14.530;2023-11-19T01:01:59;30.27;;;9.93;;
66095;SDS011;53861;53.422;14.530;2023-11-19T01:04:33;33.60;;;10.45;;
66095;SDS011;53861;53.422;14.530;2023-11-19T01:07:04;38.53;;;11.73;;
66095;SDS011;53861;53.422;14.530;2023-11-19T01:09:38;36.33;;;10.50;;
66095;SDS011;53861;53.422;14.530;2023-11-19T01:12:13;32.03;;;9.77;;
66095;SDS011;53861;53.422;14.530;2023-11-19T01:14:43;34.75;;;10.13;;
66095;SDS011;53861;53.422;14.530;2023-11-19T01:17:10;34.47;;;10.40;;
66095;SDS011;53861;53.422;14.530;2023-11-19T01:19:39;33.13;;;10.00;;
66095;SDS011;53861;53.422;14.530;2023-11-19T01:22:11;29.13;;;9.80;;
66095;SDS011;53861;53.422;14.530;2023-11-19T01:24:40;29.88;;;10.07;;
66095;SDS011;53861;53.422;14.530;2023-11-19T01:27:18;28.85;;;9.55;;
66095;SDS011;53861;53.422;14.530;2023-11-19T01:29:48;22.00;;;7.60;;
66095;SDS011;53861;53.422;14.530;2023-11-19T01:32:19;33.30;;;9.63;;
66095;SDS011;53861;53.422;14.530;2023-11-19T01:34:49;26.95;;;8.57;;
66095;SDS011;53861;53.422;14.530;2023-11-19T01:37:18;32.05;;;9.88;;
66095;SDS011;53861;53.422;14.530;2023-11-19T01:39:47;31.13;;;10.40;;
66095;SDS011;53861;53.422;14.530;2023-11-19T01:42:16;31.17;;;8.63;;
66095;SDS011;53861;53.422;14.530;2023-11-19T01:44:54;34.25;;;10.93;;
66095;SDS011;53861;53.422;14.530;2023-11-19T01:47:28;24.77;;;10.23;;
66095;SDS011;53861;53.422;14.530;2023-11-19T01:50:03;34.58;;;10.27;;
66095;SDS011;53861;53.422;14.530;2023-11-19T01:52:40;36.42;;;10.25;;
66095;SDS011;53861;53.422;14.530;2023-11-19T01:55:10;29.02;;;9.45;;
66095;SDS011;53861;53.422;14.530;2023-11-19T01:57:41;34.92;;;10.20;;
66095;SDS011;53861;53.422;14.530;2023-11-19T02:00:15;40.55;;;12.23;;
66095;SDS011;53861;53.422;14.530;2023-11-19T02:02:44;33.25;;;10.65;;
66095;SDS011;53861;53.422;14.530;2023-11-19T02:05:20;46.92;;;9.30;;
66095;SDS011;53861;53.422;14.530;2023-11-19T02:07:53;37.95;;;11.48;;
66095;SDS011;53861;53.422;14.530;2023-11-19T02:10:22;33.03;;;10.10;;
66095;SDS011;53861;53.422;14.530;2023-11-19T02:12:53;36.53;;;11.48;;
66095;SDS011;53861;53.422;14.530;2023-11-19T02:15:28;38.83;;;12.55;;
66095;SDS011;53861;53.422;14.530;2023-11-19T02:18:01;35.08;;;11.25;;
66095;SDS011;53861;53.422;14.530;2023-11-19T02:20:44;35.63;;;11.88;;
66095;SDS011;53861;53.422;14.530;2023-11-19T02:23:22;26.73;;;9.48;;
66095;SDS011;53861;53.422;14.530;2023-11-19T02:25:53;25.98;;;8.63;;
66095;SDS011;53861;53.422;14.530;2023-11-19T02:28:32;30.48;;;10.40;;
66095;SDS011;53861;53.422;14.530;2023-11-19T02:31:06;38.95;;;10.93;;
66095;SDS011;53861;53.422;14.530;2023-11-19T02:33:36;38.08;;;12.15;;
66095;SDS011;53861;53.422;14.530;2023-11-19T02:36:06;37.85;;;11.30;;
66095;SDS011;53861;53.422;14.530;2023-11-19T02:38:39;36.25;;;11.93;;
66095;SDS011;53861;53.422;14.530;2023-11-19T02:41:07;38.13;;;12.05;;
66095;SDS011;53861;53.422;14.530;2023-11-19T02:43:38;24.27;;;7.82;;
66095;SDS011;53861;53.422;14.530;2023-11-19T02:46:12;33.80;;;11.50;;
66095;SDS011;53861;53.422;14.530;2023-11-19T02:48:42;37.40;;;12.38;;
66095;SDS011;53861;53.422;14.530;2023-11-19T02:51:11;33.38;;;11.20;;
66095;SDS011;53861;53.422;14.530;2023-11-19T02:53:40;39.40;;;12.00;;
66095;SDS011;53861;53.422;14.530;2023-11-19T02:56:12;29.40;;;10.05;;
66095;SDS011;53861;53.422;14.530;2023-11-19T02:58:51;34.70;;;11.57;;
66095;SDS011;53861;53.422;14.530;2023-11-19T03:01:22;27.80;;;9.27;;
66095;SDS011;53861;53.422;14.530;2023-11-19T03:03:55;35.42;;;12.15;;
66095;SDS011;53861;53.422;14.530;2023-11-19T03:06:24;35.30;;;11.88;;
66095;SDS011;53861;53.422;14.530;2023-11-19T03:08:52;30.83;;;10.52;;
66095;SDS011;53861;53.422;14.530;2023-11-19T03:11:22;36.33;;;13.02;;
66095;SDS011;53861;53.422;14.530;2023-11-19T03:13:56;40.40;;;11.77;;
66095;SDS011;53861;53.422;14.530;2023-11-19T03:16:24;31.60;;;10.45;;
66095;SDS011;53861;53.422;14.530;2023-11-19T03:18:54;35.85;;;10.82;;
66095;SDS011;53861;53.422;14.530;2023-11-19T03:21:26;31.67;;;10.35;;
66095;SDS011;53861;53.422;14.530;2023-11-19T03:23:54;37.55;;;12.65;;
66095;SDS011;53861;53.422;14.530;2023-11-19T03:26:22;39.08;;;12.23;;
66095;SDS011;53861;53.422;14.530;2023-11-19T03:28:56;30.67;;;9.32;;
66095;SDS011;53861;53.422;14.530;2023-11-19T03:31:27;34.05;;;10.98;;
66095;SDS011;53861;53.422;14.530;2023-11-19T03:33:54;35.53;;;11.63;;
66095;SDS011;53861;53.422;14.530;2023-11-19T03:36:24;43.47;;;12.65;;
66095;SDS011;53861;53.422;14.530;2023-11-19T03:39:02;48.85;;;14.73;;
66095;SDS011;53861;53.422;14.530;2023-11-19T03:41:30;38.50;;;11.77;;
66095;SDS011;53861;53.422;14.530;2023-11-19T03:44:06;28.75;;;11.52;;
66095;SDS011;53861;53.422;14.530;2023-11-19T03:46:44;40.33;;;12.32;;
66095;SDS011;53861;53.422;14.530;2023-11-19T03:49:15;34.10;;;14.27;;
66095;SDS011;53861;53.422;14.530;2023-11-19T03:51:44;50.50;;;13.57;;
66095;SDS011;53861;53.422;14.530;2023-11-19T03:54:11;41.85;;;13.27;;
66095;SDS011;53861;53.422;14.530;2023-11-19T03:56:39;34.78;;;11.50;;
66095;SDS011;53861;53.422;14.530;2023-11-19T03:59:12;31.83;;;10.15;;
66095;SDS011;53861;53.422;14.530;2023-11-19T04:01:42;47.25;;;14.98;;
66095;SDS011;53861;53.422;14.530;2023-11-19T04:04:09;36.67;;;11.57;;
66095;SDS011;53861;53.422;14.530;2023-11-19T04:06:42;35.15;;;11.27;;
66095;SDS011;53861;53.422;14.530;2023-11-19T04:09:10;34.83;;;11.20;;
66095;SDS011;53861;53.422;14.530;2023-11-19T04:11:45;24.67;;;9.52;;
66095;SDS011;53861;53.422;14.530;2023-11-19T04:14:20;27.48;;;9.70;;
66095;SDS011;53861;53.422;14.530;2023-11-19T04:16:58;42.78;;;13.02;;
66095;SDS011;53861;53.422;14.530;2023-11-19T04:19:25;50.72;;;13.82;;
66095;SDS011;53861;53.422;14.530;2023-11-19T04:21:56;34.90;;;12.35;;
66095;SDS011;53861;53.422;14.530;2023-11-19T04:24:26;40.85;;;12.55;;
66095;SDS011;53861;53.422;14.530;2023-11-19T04:26:55;34.67;;;10.60;;
66095;SDS011;53861;53.422;14.530;2023-11-19T04:29:26;37.42;;;11.93;;
66095;SDS011;53861;53.422;14.530;2023-11-19T04:32:08;43.80;;;13.35;;
66095;SDS011;53861;53.422;14.530;2023-11-19T04:34:38;24.80;;;9.40;;
66095;SDS011;53861;53.422;14.530;2023-11-19T04:37:06;46.03;;;14.98;;
66095;SDS011;53861;53.422;14.530;2023-11-19T04:39:33;32.67;;;10.63;;
66095;SDS011;53861;53.422;14.530;2023-11-19T04:42:03;44.13;;;13.80;;
66095;SDS011;53861;53.422;14.530;2023-11-19T04:44:34;37.33;;;10.57;;
66095;SDS011;53861;53.422;14.530;2023-11-19T04:47:07;43.28;;;13.93;;
66095;SDS011;53861;53.422;14.530;2023-11-19T04:49:39;42.03;;;12.50;;
66095;SDS011;53861;53.422;14.530;2023-11-19T04:52:17;38.80;;;12.48;;
66095;SDS011;53861;53.422;14.530;2023-11-19T04:54:46;43.22;;;12.43;;
66095;SDS011;53861;53.422;14.530;2023-11-19T04:57:20;35.15;;;11.57;;
66095;SDS011;53861;53.422;14.530;2023-11-19T04:59:54;38.83;;;12.40;;
66095;SDS011;53861;53.422;14.530;2023-11-19T05:02:25;38.75;;;11.85;;
66095;SDS011;53861;53.422;14.530;2023-11-19T05:05:06;36.08;;;12.68;;
66095;SDS011;53861;53.422;14.530;2023-11-19T05:07:35;29.30;;;10.40;;
66095;SDS011;53861;53.422;14.530;2023-11-19T05:10:05;44.30;;;13.95;;
66095;SDS011;53861;53.422;14.530;2023-11-19T05:12:35;44.92;;;13.02;;
66095;SDS011;53861;53.422;14.530;2023-11-19T05:15:06;43.53;;;13.98;;
66095;SDS011;53861;53.422;14.530;2023-11-19T05:17:37;46.22;;;14.45;;
66095;SDS011;53861;53.422;14.530;2023-11-19T05:20:05;41.72;;;12.85;;
66095;SDS011;53861;53.422;14.530;2023-11-19T05:22:39;36.63;;;11.98;;
66095;SDS011;53861;53.422;14.530;2023-11-19T05:25:06;39.55;;;13.50;;
66095;SDS011;53861;53.422;14.530;2023-11-19T05:27:34;34.30;;;11.40;;
66095;SDS011;53861;53.422;14.530;2023-11-19T05:30:02;39.28;;;12.98;;
66095;SDS011;53861;53.422;14.530;2023-11-19T05:32:34;36.50;;;11.35;;
66095;SDS011;53861;53.422;14.530;2023-11-19T05:35:01;37.47;;;12.10;;
66095;SDS011;53861;53.422;14.530;2023-11-19T05:37:28;44.38;;;14.25;;
66095;SDS011;53861;53.422;14.530;2023-11-19T05:39:56;39.65;;;12.43;;
66095;SDS011;53861;53.422;14.530;2023-11-19T05:42:25;48.92;;;14.27;;
66095;SDS011;53861;53.422;14.530;2023-11-19T05:44:53;41.13;;;13.52;;
66095;SDS011;53861;53.422;14.530;2023-11-19T05:47:20;35.78;;;12.25;;
66095;SDS011;53861;53.422;14.530;2023-11-19T05:49:49;34.60;;;11.10;;
66095;SDS011;53861;53.422;14.530;2023-11-19T05:52:16;42.67;;;12.63;;
66095;SDS011;53861;53.422;14.530;2023-11-19T05:54:43;39.03;;;11.80;;
66095;SDS011;53861;53.422;14.530;2023-11-19T05:57:10;29.38;;;10.23;;
66095;SDS011;53861;53.422;14.530;2023-11-19T05:59:39;49.75;;;14.45;;
66095;SDS011;53861;53.422;14.530;2023-11-19T06:02:06;39.92;;;12.93;;
66095;SDS011;53861;53.422;14.530;2023-11-19T06:04:34;29.45;;;10.68;;
66095;SDS011;53861;53.422;14.530;2023-11-19T06:07:02;43.83;;;14.48;;
66095;SDS011;53861;53.422;14.530;2023-11-19T06:09:30;37.45;;;11.77;;
66095;SDS011;53861;53.422;14.530;2023-11-19T06:11:59;46.85;;;15.07;;
66095;SDS011;53861;53.422;14.530;2023-11-19T06:14:27;47.30;;;14.52;;
66095;SDS011;53861;53.422;14.530;2023-11-19T06:16:54;41.42;;;12.48;;
66095;SDS011;53861;53.422;14.530;2023-11-19T06:19:22;45.05;;;14.05;;
66095;SDS011;53861;53.422;14.530;2023-11-19T06:21:50;36.30;;;11.25;;
66095;SDS011;53861;53.422;14.530;2023-11-19T06:24:19;24.55;;;10.18;;
66095;SDS011;53861;53.422;14.530;2023-11-19T06:26:46;44.70;;;13.38;;
66095;SDS011;53861;53.422;14.530;2023-11-19T06:29:13;44.28;;;13.70;;
66095;SDS011;53861;53.422;14.530;2023-11-19T06:31:44;45.22;;;14.02;;
66095;SDS011;53861;53.422;14.530;2023-11-19T06:34:12;37.13;;;11.52;;
66095;SDS011;53861;53.422;14.530;2023-11-19T06:36:39;30.27;;;9.80;;
66095;SDS011;53861;53.422;14.530;2023-11-19T06:39:06;43.42;;;13.73;;
66095;SDS011;53861;53.422;14.530;2023-11-19T06:41:36;31.08;;;10.65;;
66095;SDS011;53861;53.422;14.530;2023-11-19T06:44:04;38.38;;;12.27;;
66095;SDS011;53861;53.422;14.530;2023-11-19T06:46:32;36.60;;;12.75;;
66095;SDS011;53861;53.422;14.530;2023-11-19T06:48:59;23.35;;;8.30;;
66095;SDS011;53861;53.422;14.530;2023-11-19T06:51:26;25.75;;;10.35;;
66095;SDS011;53861;53.422;14.530;2023-11-19T06:53:55;23.35;;;9.95;;
66095;SDS011;53861;53.422;14.530;2023-11-19T06:56:23;33.97;;;10.68;;
66095;SDS011;53861;53.422;14.530;2023-11-19T06:58:52;49.50;;;14.68;;
66095;SDS011;53861;53.422;14.530;2023-11-19T07:01:20;39.20;;;12.77;;
66095;SDS011;53861;53.422;14.530;2023-11-19T07:03:47;31.40;;;9.77;;
66095;SDS011;53861;53.422;14.530;2023-11-19T07:06:15;26.42;;;9.57;;
66095;SDS011;53861;53.422;14.530;2023-11-19T07:08:42;41.55;;;13.00;;
66095;SDS011;53861;53.422;14.530;2023-11-19T07:11:10;39.03;;;12.48;;
66095;SDS011;53861;53.422;14.530;2023-11-19T07:13:38;23.33;;;8.23;;
66095;SDS011;53861;53.422;14.530;2023-11-19T07:16:07;21.75;;;7.75;;
66095;SDS011;53861;53.422;14.530;2023-11-19T07:18:36;23.23;;;7.88;;
66095;SDS011;53861;53.422;14.530;2023-11-19T07:21:04;21.02;;;8.05;;
66095;SDS011;53861;53.422;14.530;2023-11-19T07:23:32;27.50;;;9.85;;
66095;SDS011;53861;53.422;14.530;2023-11-19T07:25:59;22.08;;;8.15;;
66095;SDS011;53861;53.422;14.530;2023-11-19T07:28:27;28.45;;;9.50;;
66095;SDS011;53861;53.422;14.530;2023-11-19T07:30:55;39.63;;;12.40;;
66095;SDS011;53861;53.422;14.530;2023-11-19T07:33:24;26.95;;;9.50;;
66095;SDS011;53861;53.422;14.530;2023-11-19T07:35:51;19.42;;;6.43;;
66095;SDS011;53861;53.422;14.530;2023-11-19T07:38:18;26.88;;;8.48;;
66095;SDS011;53861;53.422;14.530;2023-11-19T07:40:46;27.20;;;9.13;;
66095;SDS011;53861;53.422;14.530;2023-11-19T07:43:13;34.00;;;9.88;;
66095;SDS011;53861;53.422;14.530;2023-11-19T07:45:41;24.52;;;8.57;;
66095;SDS011;53861;53.422;14.530;2023-11-19T07:48:09;29.00;;;9.65;;
66095;SDS011;53861;53.422;14.530;2023-11-19T07:50:40;15.95;;;6.45;;
66095;SDS011;53861;53.422;14.530;2023-11-19T07:53:07;17.45;;;7.00;;
66095;SDS011;53861;53.422;14.530;2023-11-19T07:55:34;30.48;;;9.23;;
66095;SDS011;53861;53.422;14.530;2023-11-19T07:58:01;18.15;;;5.45;;
66095;SDS011;53861;53.422;14.530;2023-11-19T08:00:29;31.33;;;9.65;;
66095;SDS011;53861;53.422;14.530;2023-11-19T08:02:56;22.20;;;7.55;;
66095;SDS011;53861;53.422;14.530;2023-11-19T08:05:23;16.83;;;6.20;;
66095;SDS011;53861;53.422;14.530;2023-11-19T08:07:53;21.30;;;8.20;;
66095;SDS011;53861;53.422;14.530;2023-11-19T08:10:20;22.15;;;7.57;;
66095;SDS011;53861;53.422;14.530;2023-11-19T08:12:48;22.98;;;7.50;;
66095;SDS011;53861;53.422;14.530;2023-11-19T08:15:15;22.95;;;7.95;;
66095;SDS011;53861;53.422;14.530;2023-11-19T08:17:42;26.77;;;8.40;;
66095;SDS011;53861;53.422;14.530;2023-11-19T08:20:10;20.33;;;6.63;;
66095;SDS011;53861;53.422;14.530;2023-11-19T08:22:38;20.67;;;7.50;;
66095;SDS011;53861;53.422;14.530;2023-11-19T08:25:07;19.33;;;5.85;;
66095;SDS011;53861;53.422;14.530;2023-11-19T08:27:35;21.30;;;7.10;;
66095;SDS011;53861;53.422;14.530;2023-11-19T08:30:05;19.75;;;6.50;;
66095;SDS011;53861;53.422;14.530;2023-11-19T08:32:33;18.20;;;6.07;;
66095;SDS011;53861;53.422;14.530;2023-11-19T08:35:01;22.38;;;7.65;;
66095;SDS011;53861;53.422;14.530;2023-11-19T08:37:29;23.35;;;6.78;;
66095;SDS011;53861;53.422;14.530;2023-11-19T08:39:56;21.88;;;6.13;;
66095;SDS011;53861;53.422;14.530;2023-11-19T08:42:25;17.83;;;5.72;;
66095;SDS011;53861;53.422;14.530;2023-11-19T08:44:52;24.52;;;6.85;;
66095;SDS011;53861;53.422;14.530;2023-11-19T08:47:20;12.05;;;4.93;;
66095;SDS011;53861;53.422;14.530;2023-11-19T08:49:48;20.65;;;6.88;;
66095;SDS011;53861;53.422;14.530;2023-11-19T08:52:17;18.25;;;6.40;;
66095;SDS011;53861;53.422;14.530;2023-11-19T08:54:45;12.27;;;4.63;;
66095;SDS011;53861;53.422;14.530;2023-11-19T08:57:12;16.77;;;6.70;;
66095;SDS011;53861;53.422;14.530;2023-11-19T08:59:41;23.50;;;6.78;;
66095;SDS011;53861;53.422;14.530;2023-11-19T09:02:08;20.50;;;6.60;;
66095;SDS011;53861;53.422;14.530;2023-11-19T09:04:35;20.05;;;7.25;;
66095;SDS011;53861;53.422;14.530;2023-11-19T09:07:03;21.92;;;7.43;;
66095;SDS011;53861;53.422;14.530;2023-11-19T09:09:31;16.05;;;6.82;;
66095;SDS011;53861;53.422;14.530;2023-11-19T09:12:01;22.85;;;7.32;;
66095;SDS011;53861;53.422;14.530;2023-11-19T09:14:29;23.30;;;6.85;;
66095;SDS011;53861;53.422;14.530;2023-11-19T09:16:57;21.55;;;6.85;;
66095;SDS011;53861;53.422;14.530;2023-11-19T09:19:25;21.40;;;7.80;;
66095;SDS011;53861;53.422;14.530;2023-11-19T09:21:52;18.92;;;6.70;;
66095;SDS011;53861;53.422;14.530;2023-11-19T09:24:22;21.27;;;7.53;;
66095;SDS011;53861;53.422;14.530;2023-11-19T09:26:51;28.65;;;8.88;;
66095;SDS011;53861;53.422;14.530;2023-11-19T09:29:20;24.17;;;7.53;;
66095;SDS011;53861;53.422;14.530;2023-11-19T09:31:47;25.25;;;8.05;;
66095;SDS011;53861;53.422;14.530;2023-11-19T09:34:16;25.17;;;8.02;;
66095;SDS011;53861;53.422;14.530;2023-11-19T09:36:43;22.70;;;8.00;;
66095;SDS011;53861;53.422;14.530;2023-11-19T09:39:11;19.55;;;5.85;;
66095;SDS011;53861;53.422;14.530;2023-11-19T09:41:40;20.90;;;6.75;;
66095;SDS011;53861;53.422;14.530;2023-11-19T09:44:07;21.80;;;7.30;;
66095;SDS011;53861;53.422;14.530;2023-11-19T09:46:37;17.55;;;6.07;;
66095;SDS011;53861;53.422;14.530;2023-11-19T09:49:05;21.35;;;7.78;;
66095;SDS011;53861;53.422;14.530;2023-11-19T09:51:36;18.42;;;7.47;;
66095;SDS011;53861;53.422;14.530;2023-11-19T09:54:03;24.05;;;8.48;;
66095;SDS011;53861;53.422;14.530;2023-11-19T09:56:30;20.20;;;7.15;;
66095;SDS011;53861;53.422;14.530;2023-11-19T09:59:30;23.15;;;7.82;;
66095;SDS011;53861;53.422;14.530;2023-11-19T10:02:18;18.02;;;5.95;;
66095;SDS011;53861;53.422;14.530;2023-11-19T10:08:06;20.17;;;7.32;;
66095;SDS011;53861;53.422;14.530;2023-11-19T10:10:36;23.42;;;8.98;;
66095;SDS011;53861;53.422;14.530;2023-11-19T10:13:08;17.45;;;6.43;;
66095;SDS011;53861;53.422;14.530;2023-11-19T10:15:40;24.00;;;8.35;;
66095;SDS011;53861;53.422;14.530;2023-11-19T10:18:11;21.45;;;8.27;;
66095;SDS011;53861;53.422;14.530;2023-11-19T10:20:55;26.40;;;8.63;;
66095;SDS011;53861;53.422;14.530;2023-11-19T10:23:28;25.30;;;8.33;;
66095;SDS011;53861;53.422;14.530;2023-11-19T10:26:04;24.67;;;8.05;;
66095;SDS011;53861;53.422;14.530;2023-11-19T10:28:40;23.95;;;8.55;;
66095;SDS011;53861;53.422;14.530;2023-11-19T10:31:16;22.10;;;6.95;;
66095;SDS011;53861;53.422;14.530;2023-11-19T10:33:44;23.00;;;8.32;;
66095;SDS011;53861;53.422;14.530;2023-11-19T10:36:17;24.08;;;8.48;;
66095;SDS011;53861;53.422;14.530;2023-11-19T10:38:54;23.55;;;8.40;;
66095;SDS011;53861;53.422;14.530;2023-11-19T10:41:27;23.85;;;8.90;;
66095;SDS011;53861;53.422;14.530;2023-11-19T10:43:56;21.95;;;8.15;;
66095;SDS011;53861;53.422;14.530;2023-11-19T10:46:35;21.65;;;9.05;;
66095;SDS011;53861;53.422;14.530;2023-11-19T10:49:05;19.33;;;7.28;;
66095;SDS011;53861;53.422;14.530;2023-11-19T10:51:41;21.60;;;9.25;;
66095;SDS011;53861;53.422;14.530;2023-11-19T10:54:16;24.55;;;9.82;;
66095;SDS011;53861;53.422;14.530;2023-11-19T10:56:55;22.95;;;8.73;;
66095;SDS011;53861;53.422;14.530;2023-11-19T11:02:39;15.63;;;6.53;;
66095;SDS011;53861;53.422;14.530;2023-11-19T11:05:26;28.70;;;10.52;;
66095;SDS011;53861;53.422;14.530;2023-11-19T11:08:20;27.60;;;9.88;;
66095;SDS011;53861;53.422;14.530;2023-11-19T11:10:52;30.05;;;10.68;;
66095;SDS011;53861;53.422;14.530;2023-11-19T11:13:22;37.20;;;12.23;;
66095;SDS011;53861;53.422;14.530;2023-11-19T11:15:57;43.25;;;13.77;;
66095;SDS011;53861;53.422;14.530;2023-11-19T11:18:32;40.17;;;12.07;;
66095;SDS011;53861;53.422;14.530;2023-11-19T11:21:01;36.00;;;13.30;;
66095;SDS011;53861;53.422;14.530;2023-11-19T11:24:01;30.33;;;9.77;;
66095;SDS011;53861;53.422;14.530;2023-11-19T11:26:57;26.55;;;9.82;;
66095;SDS011;53861;53.422;14.530;2023-11-19T11:29:46;25.95;;;10.00;;
66095;SDS011;53861;53.422;14.530;2023-11-19T11:32:29;23.25;;;8.60;;
66095;SDS011;53861;53.422;14.530;2023-11-19T11:35:12;24.63;;;9.27;;
66095;SDS011;53861;53.422;14.530;2023-11-19T11:37:55;24.25;;;8.38;;
66095;SDS011;53861;53.422;14.530;2023-11-19T11:40:32;20.65;;;8.07;;
66095;SDS011;53861;53.422;14.530;2023-11-19T11:43:03;21.88;;;8.00;;
66095;SDS011;53861;53.422;14.530;2023-11-19T11:48:25;31.98;;;10.15;;
66095;SDS011;53861;53.422;14.530;2023-11-19T11:50:57;30.13;;;11.52;;
66095;SDS011;53861;53.422;14.530;2023-11-19T11:53:32;30.20;;;10.95;;
66095;SDS011;53861;53.422;14.530;2023-11-19T11:56:02;32.08;;;11.85;;
66095;SDS011;53861;53.422;14.530;2023-11-19T11:58:38;37.40;;;12.43;;
66095;SDS011;53861;53.422;14.530;2023-11-19T12:01:08;40.72;;;13.27;;
66095;SDS011;53861;53.422;14.530;2023-11-19T12:03:47;40.30;;;13.20;;
66095;SDS011;53861;53.422;14.530;2023-11-19T12:06:26;25.27;;;10.50;;
66095;SDS011;53861;53.422;14.530;2023-11-19T12:09:00;32.78;;;12.10;;
66095;SDS011;53861;53.422;14.530;2023-11-19T12:11:35;29.92;;;10.48;;
66095;SDS011;53861;53.422;14.530;2023-11-19T12:14:04;25.98;;;9.77;;
66095;SDS011;53861;53.422;14.530;2023-11-19T12:16:32;29.70;;;11.20;;
66095;SDS011;53861;53.422;14.530;2023-11-19T12:19:03;26.48;;;10.05;;
66095;SDS011;53861;53.422;14.530;2023-11-19T12:21:33;30.48;;;11.65;;
66095;SDS011;53861;53.422;14.530;2023-11-19T12:24:03;30.02;;;11.18;;
66095;SDS011;53861;53.422;14.530;2023-11-19T12:26:34;81.15;;;25.33;;
66095;SDS011;53861;53.422;14.530;2023-11-19T12:29:12;34.58;;;13.18;;
66095;SDS011;53861;53.422;14.530;2023-11-19T12:31:43;33.38;;;11.50;;
66095;SDS011;53861;53.422;14.530;2023-11-19T12:34:15;32.75;;;11.57;;
66095;SDS011;53861;53.422;14.530;2023-11-19T12:36:43;30.17;;;12.00;;
66095;SDS011;53861;53.422;14.530;2023-11-19T12:39:10;32.58;;;10.70;;
66095;SDS011;53861;53.422;14.530;2023-11-19T12:41:50;32.42;;;10.50;;
66095;SDS011;53861;53.422;14.530;2023-11-19T12:44:27;31.85;;;10.68;;
66095;SDS011;53861;53.422;14.530;2023-11-19T12:47:04;28.92;;;10.57;;
66095;SDS011;53861;53.422;14.530;2023-11-19T12:49:37;30.27;;;10.18;;
66095;SDS011;53861;53.422;14.530;2023-11-19T12:52:12;26.65;;;9.75;;
66095;SDS011;53861;53.422;14.530;2023-11-19T12:54:40;30.45;;;9.77;;
66095;SDS011;53861;53.422;14.530;2023-11-19T12:57:08;25.27;;;9.43;;
66095;SDS011;53861;53.422;14.530;2023-11-19T12:59:40;24.08;;;9.55;;
66095;SDS011;53861;53.422;14.530;2023-11-19T13:02:08;28.83;;;10.25;;
66095;SDS011;53861;53.422;14.530;2023-11-19T13:04:42;32.70;;;10.57;;
66095;SDS011;53861;53.422;14.530;2023-11-19T13:07:13;21.92;;;8.85;;
66095;SDS011;53861;53.422;14.530;2023-11-19T13:09:48;34.63;;;12.02;;
66095;SDS011;53861;53.422;14.530;2023-11-19T13:12:23;23.25;;;8.60;;
66095;SDS011;53861;53.422;14.530;2023-11-19T13:14:54;29.05;;;9.57;;
66095;SDS011;53861;53.422;14.530;2023-11-19T13:17:24;33.72;;;11.65;;
66095;SDS011;53861;53.422;14.530;2023-11-19T13:20:00;30.95;;;10.35;;
66095;SDS011;53861;53.422;14.530;2023-11-19T13:22:31;37.10;;;12.32;;
66095;SDS011;53861;53.422;14.530;2023-11-19T13:25:01;41.53;;;12.55;;
66095;SDS011;53861;53.422;14.530;2023-11-19T13:27:30;30.58;;;10.63;;
66095;SDS011;53861;53.422;14.530;2023-11-19T13:30:00;33.75;;;11.02;;
66095;SDS011;53861;53.422;14.530;2023-11-19T13:32:34;36.08;;;12.77;;
66095;SDS011;53861;53.422;14.530;2023-11-19T13:35:05;45.05;;;14.43;;
66095;SDS011;53861;53.422;14.530;2023-11-19T13:37:41;41.50;;;14.27;;
66095;SDS011;53861;53.422;14.530;2023-11-19T13:40:14;45.53;;;15.20;;
66095;SDS011;53861;53.422;14.530;2023-11-19T13:42:45;38.38;;;13.00;;
66095;SDS011;53861;53.422;14.530;2023-11-19T13:48:16;48.10;;;14.27;;
66095;SDS011;53861;53.422;14.530;2023-11-19T13:50:47;47.47;;;14.57;;
66095;SDS011;53861;53.422;14.530;2023-11-19T13:53:19;40.70;;;14.23;;
66095;SDS011;53861;53.422;14.530;2023-11-19T13:55:52;51.38;;;13.27;;
66095;SDS011;53861;53.422;14.530;2023-11-19T13:58:24;55.03;;;15.55;;
66095;SDS011;53861;53.422;14.530;2023-11-19T14:00:55;49.53;;;16.20;;
66095;SDS011;53861;53.422;14.530;2023-11-19T14:03:23;58.58;;;16.83;;
66095;SDS011;53861;53.422;14.530;2023-11-19T14:05:52;53.80;;;16.45;;
66095;SDS011;53861;53.422;14.530;2023-11-19T14:08:24;54.65;;;16.58;;
66095;SDS011;53861;53.422;14.530;2023-11-19T14:11:01;61.85;;;17.33;;
66095;SDS011;53861;53.422;14.530;2023-11-19T14:13:37;64.70;;;19.27;;
66095;SDS011;53861;53.422;14.530;2023-11-19T14:16:17;62.78;;;17.92;;
66095;SDS011;53861;53.422;14.530;2023-11-19T14:18:52;64.28;;;19.77;;
66095;SDS011;53861;53.422;14.530;2023-11-19T14:21:27;69.90;;;19.70;;
66095;SDS011;53861;53.422;14.530;2023-11-19T14:26:40;66.72;;;18.88;;
66095;SDS011;53861;53.422;14.530;2023-11-19T14:29:15;66.65;;;18.83;;
66095;SDS011;53861;53.422;14.530;2023-11-19T14:31:53;68.18;;;19.50;;
66095;SDS011;53861;53.422;14.530;2023-11-19T14:34:39;75.80;;;19.67;;
66095;SDS011;53861;53.422;14.530;2023-11-19T14:37:06;74.82;;;20.15;;
66095;SDS011;53861;53.422;14.530;2023-11-19T14:39:36;76.25;;;19.58;;
66095;SDS011;53861;53.422;14.530;2023-11-19T14:42:07;71.15;;;19.85;;
66095;SDS011;53861;53.422;14.530;2023-11-19T14:44:35;78.35;;;20.10;;
66095;SDS011;53861;53.422;14.530;2023-11-19T14:47:12;72.38;;;20.80;;
66095;SDS011;53861;53.422;14.530;2023-11-19T14:49:43;87.68;;;22.05;;
66095;SDS011;53861;53.422;14.530;2023-11-19T14:52:12;86.55;;;21.60;;